Time;durP1;ratioP1;P1;durP2;ratioP2;P2;SDS_P1;SDS_P2;PMS_P1;PMS_P2;Temp;Humidity;BMP_temperature;BMP_pressure;BME280_temperature;BME280_humidity;BME280_pressure;Samples;Min_cycle;Max_cycle;Signal;HPM_P1;HPM_P2
2023/04/09 00:02:09;;;;;;;75.40;48.88;;;;;;;;;;5052413;28;20060;-65
2023/04/09 00:04:35;;;;;;;78.72;51.40;;;;;;;;;;5036533;28;20036;-65
2023/04/09 00:07:02;;;;;;;75.47;50.22;;;;;;;;;;5058037;28;20045;-65
2023/04/09 00:09:28;;;;;;;80.43;51.75;;;;;;;;;;5042847;28;20044;-65
2023/04/09 00:11:55;;;;;;;81.60;51.85;;;;;;;;;;5060732;28;20052;-65
2023/04/09 00:14:21;;;;;;;77.93;50.67;;;;;;;;;;5058088;28;20052;-65
2023/04/09 00:16:47;;;;;;;81.72;52.80;;;;;;;;;;5059773;28;20048;-65
2023/04/09 00:19:13;;;;;;;85.57;52.13;;;;;;;;;;5057754;28;20056;-65
2023/04/09 00:21:40;;;;;;;84.30;52.15;;;;;;;;;;5042462;28;20129;-65
2023/04/09 00:24:06;;;;;;;90.25;55.72;;;;;;;;;;5055991;28;20071;-65
2023/04/09 00:26:32;;;;;;;88.35;54.13;;;;;;;;;;5061230;28;20111;-65
2023/04/09 00:28:58;;;;;;;86.93;55.50;;;;;;;;;;5060046;28;20437;-65
2023/04/09 00:31:24;;;;;;;88.65;53.40;;;;;;;;;;5059723;28;20075;-65
2023/04/09 00:33:50;;;;;;;87.28;53.53;;;;;;;;;;5058699;28;20085;-65
2023/04/09 00:36:17;;;;;;;88.82;54.97;;;;;;;;;;5059118;28;20047;-64
2023/04/09 00:38:43;;;;;;;89.25;55.75;;;;;;;;;;5062395;28;20491;-65
2023/04/09 00:41:10;;;;;;;87.35;54.13;;;;;;;;;;5063896;28;20040;-65
2023/04/09 00:43:36;;;;;;;89.47;54.13;;;;;;;;;;5060603;28;20163;-65
2023/04/09 00:46:02;;;;;;;88.28;54.47;;;;;;;;;;5046153;28;20660;-65
2023/04/09 00:48:28;;;;;;;79.82;51.45;;;;;;;;;;5063651;28;20104;-65
2023/04/09 00:50:54;;;;;;;82.10;51.83;;;;;;;;;;5043803;28;20052;-65
2023/04/09 00:53:21;;;;;;;79.28;49.78;;;;;;;;;;5061838;28;20119;-65
2023/04/09 00:55:47;;;;;;;82.18;49.60;;;;;;;;;;5058021;28;20041;-65
2023/04/09 00:58:13;;;;;;;72.32;48.53;;;;;;;;;;5039091;28;20092;-65
2023/04/09 01:00:39;;;;;;;76.30;50.53;;;;;;;;;;5063730;28;20045;-65
2023/04/09 01:03:06;;;;;;;75.82;49.17;;;;;;;;;;5054950;28;20163;-65
2023/04/09 01:05:55;;;;;;;77.38;46.78;;;;;;;;;;5039280;28;20059;-65
2023/04/09 01:08:30;;;;;;;73.93;48.05;;;;;;;;;;5052533;28;20164;-65
2023/04/09 01:11:02;;;;;;;72.35;46.60;;;;;;;;;;5053318;28;20077;-64
2023/04/09 01:13:30;;;;;;;77.07;46.53;;;;;;;;;;5057138;28;20924;-64
2023/04/09 01:15:58;;;;;;;76.35;46.42;;;;;;;;;;5055961;28;20429;-65
2023/04/09 01:18:33;;;;;;;79.30;47.65;;;;;;;;;;5055389;28;20220;-65
2023/04/09 01:21:09;;;;;;;74.38;47.65;;;;;;;;;;5056260;28;20048;-65
2023/04/09 01:23:42;;;;;;;75.88;46.30;;;;;;;;;;5040011;28;20040;-65
2023/04/09 01:26:11;;;;;;;76.55;45.90;;;;;;;;;;5041473;28;20052;-65
2023/04/09 01:28:42;;;;;;;73.93;47.05;;;;;;;;;;5038122;28;20373;-65
2023/04/09 01:31:12;;;;;;;74.35;46.95;;;;;;;;;;5036384;28;20049;-65
2023/04/09 01:33:39;;;;;;;82.57;49.78;;;;;;;;;;5059958;28;20052;-65
2023/04/09 01:36:06;;;;;;;76.05;46.33;;;;;;;;;;5038386;28;20327;-65
2023/04/09 01:38:32;;;;;;;78.60;46.58;;;;;;;;;;5038612;28;20476;-65
2023/04/09 01:40:59;;;;;;;78.25;46.55;;;;;;;;;;5057362;28;20040;-65
2023/04/09 01:43:26;;;;;;;87.88;50.42;;;;;;;;;;5061035;28;20407;-65
2023/04/09 01:45:52;;;;;;;90.00;49.50;;;;;;;;;;5043920;28;20045;-65
2023/04/09 01:48:19;;;;;;;79.50;47.85;;;;;;;;;;5039335;28;20045;-65
2023/04/09 01:50:45;;;;;;;84.50;49.47;;;;;;;;;;5053017;28;20061;-64
2023/04/09 01:53:11;;;;;;;85.78;49.83;;;;;;;;;;5045669;28;20049;-65
2023/04/09 01:55:38;;;;;;;85.78;51.15;;;;;;;;;;5052575;28;20161;-65
2023/04/09 01:58:04;;;;;;;85.60;49.13;;;;;;;;;;5055233;28;20041;-65
2023/04/09 02:00:35;;;;;;;87.63;50.17;;;;;;;;;;5040055;28;20045;-65
2023/04/09 02:03:06;;;;;;;88.03;50.63;;;;;;;;;;5059527;28;20032;-65
2023/04/09 02:05:35;;;;;;;88.13;50.03;;;;;;;;;;5059988;28;20037;-65
2023/04/09 02:08:02;;;;;;;80.38;48.97;;;;;;;;;;5055986;28;20037;-65
2023/04/09 02:10:30;;;;;;;89.25;51.42;;;;;;;;;;5038921;28;20060;-65
2023/04/09 02:12:57;;;;;;;88.68;51.33;;;;;;;;;;5058821;28;20150;-65
2023/04/09 02:15:24;;;;;;;101.63;53.63;;;;;;;;;;5037436;28;20048;-65
2023/04/09 02:17:50;;;;;;;97.97;52.40;;;;;;;;;;5053628;28;20534;-65
2023/04/09 02:20:17;;;;;;;101.18;54.10;;;;;;;;;;5036662;28;20044;-65
2023/04/09 02:22:44;;;;;;;89.70;49.92;;;;;;;;;;5054070;28;20140;-64
2023/04/09 02:25:10;;;;;;;93.82;52.15;;;;;;;;;;5049973;28;20433;-65
2023/04/09 02:27:36;;;;;;;91.82;50.47;;;;;;;;;;5032246;28;20041;-65
2023/04/09 02:30:03;;;;;;;93.18;52.33;;;;;;;;;;5057206;28;20074;-65
2023/04/09 02:32:29;;;;;;;93.10;52.45;;;;;;;;;;5055865;28;20476;-65
2023/04/09 02:34:55;;;;;;;86.68;47.35;;;;;;;;;;5050263;28;20071;-64
2023/04/09 02:37:21;;;;;;;88.65;49.45;;;;;;;;;;5060159;28;20045;-65
2023/04/09 02:39:47;;;;;;;94.72;51.08;;;;;;;;;;5037910;28;20040;-65
2023/04/09 02:42:13;;;;;;;84.80;47.10;;;;;;;;;;5051449;28;20036;-65
2023/04/09 02:44:39;;;;;;;91.85;51.05;;;;;;;;;;5058719;28;20104;-65
2023/04/09 02:47:06;;;;;;;97.65;49.75;;;;;;;;;;5062141;28;20055;-65
2023/04/09 02:49:32;;;;;;;91.82;47.08;;;;;;;;;;5055441;28;20044;-65
2023/04/09 02:51:58;;;;;;;91.72;49.53;;;;;;;;;;5060790;28;20052;-65
2023/04/09 02:54:24;;;;;;;97.18;47.33;;;;;;;;;;5060860;28;20444;-65
2023/04/09 02:56:50;;;;;;;97.00;46.88;;;;;;;;;;5056750;28;20511;-65
2023/04/09 02:59:16;;;;;;;85.85;46.22;;;;;;;;;;5037668;28;20044;-65
2023/04/09 03:01:42;;;;;;;86.20;45.13;;;;;;;;;;5036833;28;20081;-65
2023/04/09 03:04:08;;;;;;;87.65;47.95;;;;;;;;;;5058202;28;20047;-65
2023/04/09 03:06:35;;;;;;;86.68;46.88;;;;;;;;;;5056998;28;20040;-65
2023/04/09 03:09:01;;;;;;;96.07;49.38;;;;;;;;;;5051582;28;20048;-64
2023/04/09 03:11:27;;;;;;;90.30;46.85;;;;;;;;;;5053569;28;20533;-65
2023/04/09 03:13:53;;;;;;;93.40;49.78;;;;;;;;;;5052787;28;20063;-65
2023/04/09 03:16:19;;;;;;;96.55;49.25;;;;;;;;;;5055685;28;20040;-65
2023/04/09 03:18:45;;;;;;;99.10;49.90;;;;;;;;;;5033933;28;20460;-65
2023/04/09 03:21:12;;;;;;;100.78;50.97;;;;;;;;;;5056185;28;20485;-65
2023/04/09 03:23:38;;;;;;;94.50;49.55;;;;;;;;;;5032119;28;20129;-66
2023/04/09 03:26:05;;;;;;;95.28;50.50;;;;;;;;;;5052831;28;20052;-65
2023/04/09 03:28:31;;;;;;;100.43;51.10;;;;;;;;;;5048670;28;20036;-65
2023/04/09 03:30:58;;;;;;;91.20;47.63;;;;;;;;;;5032530;28;20040;-65
2023/04/09 03:33:25;;;;;;;87.88;46.65;;;;;;;;;;5056501;28;20492;-65
2023/04/09 03:35:51;;;;;;;86.82;44.33;;;;;;;;;;5062128;28;20053;-65
2023/04/09 03:38:18;;;;;;;96.13;48.03;;;;;;;;;;5062489;28;20105;-65
2023/04/09 03:40:44;;;;;;;84.60;44.20;;;;;;;;;;5060045;28;20044;-65
2023/04/09 03:43:10;;;;;;;88.68;43.83;;;;;;;;;;5060242;28;20041;-65
2023/04/09 03:45:36;;;;;;;85.45;45.05;;;;;;;;;;5061201;28;20048;-65
2023/04/09 03:48:03;;;;;;;79.65;43.92;;;;;;;;;;5062353;28;20158;-65
2023/04/09 03:50:29;;;;;;;79.45;41.78;;;;;;;;;;5042363;28;20059;-65
2023/04/09 03:52:55;;;;;;;90.60;46.10;;;;;;;;;;5059543;28;20099;-65
2023/04/09 03:55:21;;;;;;;78.43;39.95;;;;;;;;;;5060772;28;20039;-65
2023/04/09 03:57:47;;;;;;;90.28;43.97;;;;;;;;;;5057279;28;20151;-65
2023/04/09 04:00:14;;;;;;;82.43;42.42;;;;;;;;;;5040671;28;20060;-65
2023/04/09 04:02:40;;;;;;;71.90;38.53;;;;;;;;;;5059014;28;20510;-65
2023/04/09 04:05:06;;;;;;;72.03;37.85;;;;;;;;;;5060176;28;20086;-65
2023/04/09 04:07:32;;;;;;;70.47;38.22;;;;;;;;;;5039616;28;20045;-65
2023/04/09 04:09:58;;;;;;;71.07;38.33;;;;;;;;;;5061244;28;20206;-65
2023/04/09 04:12:24;;;;;;;70.85;38.13;;;;;;;;;;5062410;28;20052;-65
2023/04/09 04:14:50;;;;;;;67.32;35.25;;;;;;;;;;5044642;28;20044;-64
2023/04/09 04:17:17;;;;;;;70.30;37.50;;;;;;;;;;5060510;28;20164;-65
2023/04/09 04:19:43;;;;;;;60.97;34.75;;;;;;;;;;5060527;28;20044;-65
2023/04/09 04:22:09;;;;;;;71.80;36.03;;;;;;;;;;5057656;28;20041;-65
2023/04/09 04:24:35;;;;;;;68.90;35.42;;;;;;;;;;5061257;28;20075;-65
2023/04/09 04:27:01;;;;;;;61.83;34.58;;;;;;;;;;5058646;28;20044;-65
2023/04/09 04:29:27;;;;;;;63.20;35.13;;;;;;;;;;5062844;28;20047;-65
2023/04/09 04:31:54;;;;;;;63.13;34.83;;;;;;;;;;5039296;28;20145;-65
2023/04/09 04:34:20;;;;;;;66.75;36.47;;;;;;;;;;5039008;28;20499;-65
2023/04/09 04:36:46;;;;;;;66.93;36.70;;;;;;;;;;5059209;28;20105;-65
2023/04/09 04:39:12;;;;;;;67.57;36.05;;;;;;;;;;5060245;28;20036;-65
2023/04/09 04:41:38;;;;;;;65.65;34.70;;;;;;;;;;5059004;28;20053;-65
2023/04/09 04:44:04;;;;;;;58.45;34.05;;;;;;;;;;5054519;28;20479;-65
2023/04/09 04:46:30;;;;;;;52.63;30.30;;;;;;;;;;5057323;28;20460;-64
2023/04/09 04:48:57;;;;;;;63.15;32.97;;;;;;;;;;5037994;28;20045;-65
2023/04/09 04:51:23;;;;;;;58.35;32.25;;;;;;;;;;5054351;28;20060;-66
2023/04/09 04:53:49;;;;;;;59.97;31.75;;;;;;;;;;5062052;28;20040;-65
2023/04/09 04:56:15;;;;;;;56.08;32.03;;;;;;;;;;5059899;28;20041;-65
2023/04/09 04:58:42;;;;;;;59.40;33.38;;;;;;;;;;5062509;28;20044;-65
2023/04/09 05:01:08;;;;;;;57.38;31.55;;;;;;;;;;5040215;28;20049;-65
2023/04/09 05:03:34;;;;;;;59.90;31.23;;;;;;;;;;5058363;28;21886;-65
2023/04/09 05:06:00;;;;;;;59.10;32.08;;;;;;;;;;5061463;28;20037;-64
2023/04/09 05:08:26;;;;;;;58.92;33.88;;;;;;;;;;5061682;28;20056;-65
2023/04/09 05:10:54;;;;;;;70.43;36.17;;;;;;;;;;5060601;28;20048;-65
2023/04/09 05:13:21;;;;;;;65.82;35.40;;;;;;;;;;5060842;28;20443;-65
2023/04/09 05:15:47;;;;;;;61.25;34.65;;;;;;;;;;5055477;28;20033;-65
2023/04/09 05:18:13;;;;;;;70.40;37.33;;;;;;;;;;5061986;28;20090;-65
2023/04/09 05:20:39;;;;;;;65.68;36.22;;;;;;;;;;5038403;28;20044;-65
2023/04/09 05:23:08;;;;;;;65.85;36.42;;;;;;;;;;5060249;28;20036;-65
2023/04/09 05:25:35;;;;;;;67.35;35.60;;;;;;;;;;5040203;28;20407;-65
2023/04/09 05:28:01;;;;;;;63.42;35.22;;;;;;;;;;5058062;28;20333;-63
2023/04/09 05:30:27;;;;;;;67.38;34.53;;;;;;;;;;5058801;28;20141;-67
2023/04/09 05:32:53;;;;;;;69.28;37.47;;;;;;;;;;5026109;28;20033;-63
2023/04/09 05:35:19;;;;;;;70.53;36.08;;;;;;;;;;5053037;28;20070;-64
2023/04/09 05:37:46;;;;;;;66.97;36.28;;;;;;;;;;5057690;28;20383;-64
2023/04/09 05:40:12;;;;;;;60.97;33.35;;;;;;;;;;5056548;28;20475;-65
2023/04/09 05:42:38;;;;;;;63.47;32.42;;;;;;;;;;5056670;28;20063;-64
2023/04/09 05:45:04;;;;;;;56.97;32.17;;;;;;;;;;5054930;28;20422;-64
2023/04/09 05:47:31;;;;;;;59.65;33.20;;;;;;;;;;5036188;28;20098;-63
2023/04/09 05:49:57;;;;;;;60.45;34.45;;;;;;;;;;5055026;28;20049;-64
2023/04/09 05:52:23;;;;;;;65.88;36.85;;;;;;;;;;5054913;28;20449;-64
2023/04/09 05:54:49;;;;;;;61.17;34.88;;;;;;;;;;5054122;28;20056;-64
2023/04/09 05:57:15;;;;;;;60.90;34.88;;;;;;;;;;5054616;28;20419;-64
2023/04/09 05:59:41;;;;;;;59.40;33.13;;;;;;;;;;5058447;28;20037;-63
2023/04/09 06:02:08;;;;;;;68.35;35.53;;;;;;;;;;5061369;28;20072;-65
2023/04/09 06:04:34;;;;;;;59.05;34.78;;;;;;;;;;5047559;28;20049;-65
2023/04/09 06:07:00;;;;;;;63.95;34.20;;;;;;;;;;5045355;28;20044;-65
2023/04/09 06:09:26;;;;;;;57.22;34.30;;;;;;;;;;5061915;28;20036;-65
2023/04/09 06:11:52;;;;;;;62.65;35.42;;;;;;;;;;5058792;28;20392;-65
2023/04/09 06:14:19;;;;;;;55.58;32.92;;;;;;;;;;5040361;28;20044;-64
2023/04/09 06:16:45;;;;;;;59.35;34.03;;;;;;;;;;5040458;28;20054;-65
2023/04/09 06:19:11;;;;;;;62.55;35.38;;;;;;;;;;5056785;28;20508;-65
2023/04/09 06:21:39;;;;;;;57.60;33.47;;;;;;;;;;5057377;28;20052;-64
2023/04/09 06:24:05;;;;;;;56.20;33.78;;;;;;;;;;5056034;28;20515;-64
2023/04/09 06:26:31;;;;;;;57.97;33.92;;;;;;;;;;5051119;28;20040;-64
2023/04/09 06:28:58;;;;;;;54.33;32.85;;;;;;;;;;5036448;28;21293;-64
2023/04/09 06:31:24;;;;;;;60.55;33.33;;;;;;;;;;5053301;28;20079;-64
2023/04/09 06:33:50;;;;;;;52.83;32.33;;;;;;;;;;5055382;28;20040;-64
2023/04/09 06:36:16;;;;;;;55.85;32.88;;;;;;;;;;5052283;28;20044;-65
2023/04/09 06:38:42;;;;;;;51.50;31.98;;;;;;;;;;5053476;28;20158;-65
2023/04/09 06:41:11;;;;;;;54.05;30.92;;;;;;;;;;5058785;28;20041;-64
2023/04/09 06:43:37;;;;;;;45.75;27.58;;;;;;;;;;5041271;28;20048;-65
2023/04/09 06:46:03;;;;;;;60.13;29.98;;;;;;;;;;5040636;28;20041;-65
2023/04/09 06:48:30;;;;;;;42.20;27.75;;;;;;;;;;5057786;28;20074;-64
2023/04/09 06:50:56;;;;;;;43.80;26.23;;;;;;;;;;5058282;28;20067;-65
2023/04/09 06:53:22;;;;;;;40.97;26.80;;;;;;;;;;5055064;28;20384;-64
2023/04/09 06:55:48;;;;;;;43.90;27.48;;;;;;;;;;5056998;28;20526;-64
2023/04/09 06:58:15;;;;;;;47.03;29.27;;;;;;;;;;5058710;28;20033;-64
2023/04/09 07:00:41;;;;;;;47.90;29.63;;;;;;;;;;5057252;28;20071;-65
2023/04/09 07:03:07;;;;;;;42.53;27.15;;;;;;;;;;5059464;28;20513;-65
2023/04/09 07:05:35;;;;;;;44.47;27.77;;;;;;;;;;5056992;28;20057;-65
2023/04/09 07:08:01;;;;;;;43.15;28.08;;;;;;;;;;5059930;28;20037;-65
2023/04/09 07:10:27;;;;;;;43.97;27.65;;;;;;;;;;5063012;28;20136;-65
2023/04/09 07:12:54;;;;;;;45.22;27.48;;;;;;;;;;5062641;28;20074;-64
2023/04/09 07:15:20;;;;;;;45.00;27.50;;;;;;;;;;5045705;28;20189;-64
2023/04/09 07:17:46;;;;;;;46.88;26.77;;;;;;;;;;5062519;28;20039;-65
2023/04/09 07:20:12;;;;;;;45.05;28.30;;;;;;;;;;5065340;28;20110;-65
2023/04/09 07:22:39;;;;;;;48.05;30.42;;;;;;;;;;5066125;28;20399;-65
2023/04/09 07:25:05;;;;;;;47.15;29.80;;;;;;;;;;5068536;28;20048;-64
2023/04/09 07:27:32;;;;;;;53.10;29.17;;;;;;;;;;5061352;28;20090;-65
2023/04/09 07:29:58;;;;;;;47.08;29.52;;;;;;;;;;5066039;28;20369;-65
2023/04/09 07:32:26;;;;;;;46.22;28.55;;;;;;;;;;5064804;28;20119;-65
2023/04/09 07:34:53;;;;;;;45.58;29.38;;;;;;;;;;5066791;28;20488;-65
2023/04/09 07:37:20;;;;;;;44.50;28.30;;;;;;;;;;5060219;28;20124;-64
2023/04/09 07:39:46;;;;;;;45.83;28.98;;;;;;;;;;5057557;28;20583;-64
2023/04/09 07:42:13;;;;;;;50.05;30.05;;;;;;;;;;5058219;28;20048;-64
2023/04/09 07:44:39;;;;;;;44.08;28.23;;;;;;;;;;5057133;28;20127;-64
2023/04/09 07:47:06;;;;;;;53.60;31.27;;;;;;;;;;5056165;28;20456;-65
2023/04/09 07:49:33;;;;;;;50.35;30.38;;;;;;;;;;5057544;28;20049;-64
2023/04/09 07:51:59;;;;;;;48.60;30.05;;;;;;;;;;5054843;28;20345;-65
2023/04/09 07:54:27;;;;;;;49.08;30.75;;;;;;;;;;5060156;28;20115;-65
2023/04/09 07:56:53;;;;;;;47.08;30.30;;;;;;;;;;5058781;28;20087;-65
2023/04/09 07:59:19;;;;;;;44.03;28.73;;;;;;;;;;5053831;28;20488;-65
2023/04/09 08:01:45;;;;;;;49.20;32.78;;;;;;;;;;5064699;28;20484;-65
2023/04/09 08:04:12;;;;;;;52.17;31.50;;;;;;;;;;5065255;28;20044;-65
2023/04/09 08:06:38;;;;;;;50.33;32.72;;;;;;;;;;5019013;28;20052;-65
2023/04/09 08:09:05;;;;;;;51.90;32.22;;;;;;;;;;5045836;28;20177;-64
2023/04/09 08:11:31;;;;;;;46.42;30.60;;;;;;;;;;5060032;28;20135;-65
2023/04/09 08:13:57;;;;;;;48.38;30.15;;;;;;;;;;5061182;28;20033;-64
2023/04/09 08:16:23;;;;;;;49.60;30.05;;;;;;;;;;5061932;28;20036;-64
2023/04/09 08:18:50;;;;;;;46.38;28.83;;;;;;;;;;5060681;28;20048;-64
2023/04/09 08:21:16;;;;;;;47.17;30.40;;;;;;;;;;5059187;28;20052;-64
2023/04/09 08:23:43;;;;;;;50.00;30.88;;;;;;;;;;5060650;28;20147;-65
2023/04/09 08:26:09;;;;;;;49.65;31.05;;;;;;;;;;5055790;28;20385;-65
2023/04/09 08:28:36;;;;;;;49.60;31.88;;;;;;;;;;5059268;28;20158;-64
2023/04/09 08:31:02;;;;;;;51.60;32.03;;;;;;;;;;5058049;28;20384;-64
2023/04/09 08:33:29;;;;;;;51.92;31.80;;;;;;;;;;5056691;28;20469;-65
2023/04/09 08:35:55;;;;;;;47.28;29.60;;;;;;;;;;5059625;28;20059;-65
2023/04/09 08:38:21;;;;;;;50.53;30.70;;;;;;;;;;5057012;28;20158;-65
2023/04/09 08:40:47;;;;;;;47.03;30.08;;;;;;;;;;5039273;28;20040;-65
2023/04/09 08:43:16;;;;;;;49.85;31.35;;;;;;;;;;5056896;28;20136;-65
2023/04/09 08:45:42;;;;;;;49.13;31.15;;;;;;;;;;5065094;28;20094;-64
2023/04/09 08:48:10;;;;;;;45.50;29.90;;;;;;;;;;5066517;28;20037;-65
2023/04/09 08:50:36;;;;;;;50.58;32.55;;;;;;;;;;5058091;28;20044;-65
2023/04/09 08:53:04;;;;;;;48.55;30.33;;;;;;;;;;5068941;28;20036;-64
2023/04/09 08:55:33;;;;;;;50.10;31.73;;;;;;;;;;5067536;28;20049;-65
2023/04/09 08:57:59;;;;;;;47.33;29.00;;;;;;;;;;5043060;28;20115;-65
2023/04/09 09:00:26;;;;;;;46.90;30.50;;;;;;;;;;5059794;28;20494;-64
2023/04/09 09:03:04;;;;;;;45.85;28.40;;;;;;;;;;5066489;28;20157;-65
2023/04/09 09:05:40;;;;;;;45.83;28.98;;;;;;;;;;5062700;28;20482;-65
2023/04/09 09:08:07;;;;;;;43.75;28.90;;;;;;;;;;5060914;28;20144;-65
2023/04/09 09:10:41;;;;;;;43.58;28.20;;;;;;;;;;5061069;28;20139;-65
2023/04/09 09:13:24;;;;;;;43.13;28.00;;;;;;;;;;5061052;28;20131;-65
2023/04/09 09:15:53;;;;;;;43.15;28.90;;;;;;;;;;5058153;28;20050;-65
2023/04/09 09:18:21;;;;;;;47.38;29.80;;;;;;;;;;5058576;28;20464;-65
2023/04/09 09:20:47;;;;;;;46.83;28.65;;;;;;;;;;5060307;28;20468;-65
2023/04/09 09:23:13;;;;;;;44.65;29.42;;;;;;;;;;5056129;28;20118;-65
2023/04/09 09:25:40;;;;;;;46.35;28.30;;;;;;;;;;5058957;28;20043;-64
2023/04/09 09:28:09;;;;;;;41.13;26.83;;;;;;;;;;5058422;28;20131;-65
2023/04/09 09:30:37;;;;;;;46.72;29.27;;;;;;;;;;5042824;28;20040;-64
2023/04/09 09:33:06;;;;;;;49.10;29.42;;;;;;;;;;5056275;28;20045;-64
2023/04/09 09:35:47;;;;;;;43.45;27.92;;;;;;;;;;5055848;28;20110;-65
2023/04/09 09:38:14;;;;;;;49.40;28.98;;;;;;;;;;5057411;28;20183;-64
2023/04/09 09:40:41;;;;;;;47.22;30.92;;;;;;;;;;5060512;28;20092;-65
2023/04/09 09:43:07;;;;;;;45.42;29.13;;;;;;;;;;5055499;28;20487;-65
2023/04/09 09:45:33;;;;;;;43.72;28.45;;;;;;;;;;5056335;28;20075;-65
2023/04/09 09:48:00;;;;;;;44.80;29.85;;;;;;;;;;5060714;28;20540;-65
2023/04/09 09:50:29;;;;;;;45.28;29.08;;;;;;;;;;5054155;28;20041;-64
2023/04/09 09:53:02;;;;;;;45.85;29.10;;;;;;;;;;5052842;28;20045;-65
2023/04/09 09:55:30;;;;;;;43.47;27.77;;;;;;;;;;5060296;28;20123;-65
2023/04/09 09:57:58;;;;;;;43.38;29.67;;;;;;;;;;5055387;28;20041;-65
2023/04/09 10:00:25;;;;;;;44.22;29.17;;;;;;;;;;5057598;28;20045;-65
2023/04/09 10:03:12;;;;;;;43.03;28.65;;;;;;;;;;5056065;28;21157;-65
2023/04/09 10:05:39;;;;;;;47.22;29.55;;;;;;;;;;5055193;28;20045;-64
2023/04/09 10:08:06;;;;;;;45.65;28.45;;;;;;;;;;5061739;28;20365;-65
2023/04/09 10:10:33;;;;;;;41.78;26.40;;;;;;;;;;5051260;28;20120;-65
2023/04/09 10:12:59;;;;;;;49.83;30.42;;;;;;;;;;5056634;28;20543;-65
2023/04/09 10:15:26;;;;;;;45.00;29.40;;;;;;;;;;5054597;28;20040;-65
2023/04/09 10:17:52;;;;;;;47.20;29.08;;;;;;;;;;5060710;28;20086;-65
2023/04/09 10:20:23;;;;;;;45.45;29.42;;;;;;;;;;5051356;28;20080;-65
2023/04/09 10:22:50;;;;;;;47.78;29.63;;;;;;;;;;5055912;28;20504;-65
2023/04/09 10:25:17;;;;;;;45.35;30.08;;;;;;;;;;5052568;28;20060;-65
2023/04/09 10:27:45;;;;;;;48.95;29.85;;;;;;;;;;5038032;28;20052;-65
2023/04/09 10:30:31;;;;;;;45.75;28.85;;;;;;;;;;5061724;28;20065;-65
2023/04/09 10:33:07;;;;;;;45.88;29.63;;;;;;;;;;5052711;28;20047;-65
2023/04/09 10:35:34;;;;;;;46.72;29.58;;;;;;;;;;5063169;28;20040;-64
2023/04/09 10:38:00;;;;;;;49.72;28.88;;;;;;;;;;5060243;28;20511;-64
2023/04/09 10:40:27;;;;;;;43.75;29.17;;;;;;;;;;5061610;28;20036;-65
2023/04/09 10:42:55;;;;;;;41.08;29.00;;;;;;;;;;5059873;28;20041;-65
2023/04/09 10:45:21;;;;;;;48.53;30.73;;;;;;;;;;5062577;28;20388;-64
2023/04/09 10:47:50;;;;;;;47.80;29.15;;;;;;;;;;5038216;28;20056;-65
2023/04/09 10:50:17;;;;;;;51.03;30.63;;;;;;;;;;5062467;28;20044;-65
2023/04/09 10:52:43;;;;;;;49.63;29.52;;;;;;;;;;5062305;28;20453;-65
2023/04/09 10:55:29;;;;;;;45.88;29.90;;;;;;;;;;5064162;28;20056;-65
2023/04/09 10:57:56;;;;;;;44.33;28.45;;;;;;;;;;5064309;28;20087;-65
2023/04/09 11:00:22;;;;;;;45.53;30.98;;;;;;;;;;5060990;28;20036;-65
2023/04/09 11:02:59;;;;;;;45.42;29.58;;;;;;;;;;5062193;28;20045;-64
2023/04/09 11:05:27;;;;;;;44.28;29.58;;;;;;;;;;5062596;28;20051;-65
2023/04/09 11:07:57;;;;;;;48.60;30.75;;;;;;;;;;5046820;28;20512;-65
2023/04/09 11:10:23;;;;;;;48.08;31.80;;;;;;;;;;5055826;28;20094;-65
2023/04/09 11:12:49;;;;;;;49.35;30.88;;;;;;;;;;5061780;28;20097;-65
2023/04/09 11:15:17;;;;;;;44.80;30.30;;;;;;;;;;5059985;28;21252;-65
2023/04/09 11:17:43;;;;;;;44.33;29.88;;;;;;;;;;5057115;28;20088;-65
2023/04/09 11:20:10;;;;;;;49.03;30.67;;;;;;;;;;5061995;28;20386;-65
2023/04/09 11:22:36;;;;;;;45.90;30.40;;;;;;;;;;5060444;28;20057;-65
2023/04/09 11:25:02;;;;;;;41.38;27.42;;;;;;;;;;5047527;28;20045;-65
2023/04/09 11:27:28;;;;;;;45.17;29.33;;;;;;;;;;5064268;28;20413;-65
2023/04/09 11:29:55;;;;;;;42.88;29.35;;;;;;;;;;5061355;28;20040;-65
2023/04/09 11:32:21;;;;;;;43.67;30.17;;;;;;;;;;5054591;28;20060;-65
2023/04/09 11:34:47;;;;;;;45.40;28.38;;;;;;;;;;5066702;28;20037;-65
2023/04/09 11:37:15;;;;;;;38.13;26.00;;;;;;;;;;5066631;28;20116;-65
2023/04/09 11:39:43;;;;;;;41.75;27.50;;;;;;;;;;5064004;28;20051;-65
2023/04/09 11:42:15;;;;;;;34.70;25.10;;;;;;;;;;5064560;28;20036;-65
2023/04/09 11:44:41;;;;;;;37.88;25.80;;;;;;;;;;5066742;28;20040;-65
2023/04/09 11:47:08;;;;;;;37.15;27.17;;;;;;;;;;5063610;28;20197;-65
2023/04/09 11:49:34;;;;;;;32.63;24.98;;;;;;;;;;5066702;28;20492;-65
2023/04/09 11:52:02;;;;;;;37.53;27.48;;;;;;;;;;5055348;28;20091;-65
2023/04/09 11:54:32;;;;;;;35.38;26.02;;;;;;;;;;5061636;28;20052;-65
2023/04/09 11:57:00;;;;;;;36.78;26.02;;;;;;;;;;5063610;28;20048;-65
2023/04/09 11:59:27;;;;;;;33.88;24.98;;;;;;;;;;5065662;28;20101;-66
2023/04/09 12:01:53;;;;;;;33.08;23.92;;;;;;;;;;5063376;28;20040;-65
2023/04/09 12:04:20;;;;;;;29.98;23.75;;;;;;;;;;5060944;28;20064;-65
2023/04/09 12:06:47;;;;;;;28.48;22.90;;;;;;;;;;5049204;28;20044;-66
2023/04/09 12:09:13;;;;;;;30.17;24.20;;;;;;;;;;5047446;28;20491;-66
2023/04/09 12:11:42;;;;;;;28.63;23.02;;;;;;;;;;5065541;28;20064;-66
2023/04/09 12:14:12;;;;;;;29.30;23.40;;;;;;;;;;5064712;28;20073;-66
2023/04/09 12:16:44;;;;;;;34.85;24.20;;;;;;;;;;5064271;28;20075;-65
2023/04/09 12:19:11;;;;;;;30.33;23.38;;;;;;;;;;5062701;28;20044;-65
2023/04/09 12:21:47;;;;;;;31.30;22.58;;;;;;;;;;5063067;28;20169;-66
2023/04/09 12:24:14;;;;;;;30.67;24.30;;;;;;;;;;5047292;28;20044;-66
2023/04/09 12:26:40;;;;;;;29.52;23.52;;;;;;;;;;5062616;28;20052;-66
2023/04/09 12:29:06;;;;;;;27.95;22.95;;;;;;;;;;5065209;28;20123;-66
2023/04/09 12:31:32;;;;;;;28.33;21.90;;;;;;;;;;5065519;28;20102;-66
2023/04/09 12:33:58;;;;;;;26.25;21.65;;;;;;;;;;5063336;28;20414;-66
2023/04/09 12:36:25;;;;;;;26.02;22.02;;;;;;;;;;5062052;28;20044;-66
2023/04/09 12:38:51;;;;;;;27.88;21.45;;;;;;;;;;5060502;28;20156;-66
2023/04/09 12:41:17;;;;;;;27.05;22.17;;;;;;;;;;5060510;28;20047;-66
2023/04/09 12:43:44;;;;;;;27.45;21.45;;;;;;;;;;5062357;28;20051;-65
2023/04/09 12:46:10;;;;;;;27.65;20.70;;;;;;;;;;5060556;28;20492;-64
2023/04/09 12:48:37;;;;;;;28.48;21.90;;;;;;;;;;5042445;28;20120;-64
2023/04/09 12:51:03;;;;;;;25.88;21.40;;;;;;;;;;5039892;28;20120;-64
2023/04/09 12:53:29;;;;;;;26.33;20.95;;;;;;;;;;5059753;28;20043;-64
2023/04/09 12:55:55;;;;;;;25.58;20.40;;;;;;;;;;5060613;28;20048;-64
2023/04/09 12:58:22;;;;;;;28.08;20.90;;;;;;;;;;5059438;28;20127;-64
2023/04/09 13:00:48;;;;;;;24.40;19.42;;;;;;;;;;5059409;28;20059;-64
2023/04/09 13:03:15;;;;;;;23.27;19.80;;;;;;;;;;5058062;28;20093;-64
2023/04/09 13:05:42;;;;;;;24.50;19.42;;;;;;;;;;5060556;28;20059;-64
2023/04/09 13:08:08;;;;;;;25.75;21.55;;;;;;;;;;5055945;28;20083;-64
2023/04/09 13:10:35;;;;;;;26.67;21.38;;;;;;;;;;5054390;28;20094;-65
2023/04/09 13:13:02;;;;;;;24.20;20.20;;;;;;;;;;5048439;28;20480;-64
2023/04/09 13:15:28;;;;;;;26.23;19.90;;;;;;;;;;5056148;28;20093;-65
2023/04/09 13:17:55;;;;;;;29.77;20.30;;;;;;;;;;5063924;28;20040;-64
2023/04/09 13:20:21;;;;;;;25.92;20.13;;;;;;;;;;5062446;28;20055;-64
2023/04/09 13:22:47;;;;;;;23.20;17.90;;;;;;;;;;5058372;28;20105;-64
2023/04/09 13:25:15;;;;;;;24.00;18.58;;;;;;;;;;5058324;28;20033;-65
2023/04/09 13:27:41;;;;;;;23.90;19.15;;;;;;;;;;5058053;28;20048;-65
2023/04/09 13:30:08;;;;;;;23.45;19.77;;;;;;;;;;5057201;28;20044;-65
2023/04/09 13:32:34;;;;;;;22.52;17.35;;;;;;;;;;5042115;28;20078;-65
2023/04/09 13:35:00;;;;;;;23.85;18.70;;;;;;;;;;5059752;28;20392;-65
2023/04/09 13:37:26;;;;;;;25.17;19.73;;;;;;;;;;5056549;28;20082;-65
2023/04/09 13:39:52;;;;;;;24.45;18.55;;;;;;;;;;5056494;28;20046;-65
2023/04/09 13:42:18;;;;;;;22.30;17.40;;;;;;;;;;5055757;28;20048;-65
2023/04/09 13:44:45;;;;;;;23.27;18.75;;;;;;;;;;5037369;28;20123;-65
2023/04/09 13:47:12;;;;;;;24.30;19.42;;;;;;;;;;5056154;28;20040;-65
2023/04/09 13:49:38;;;;;;;24.00;18.33;;;;;;;;;;5055645;28;20567;-65
2023/04/09 13:52:05;;;;;;;25.50;18.67;;;;;;;;;;5054199;28;20045;-65
2023/04/09 13:54:31;;;;;;;23.83;17.60;;;;;;;;;;5054732;28;20045;-65
2023/04/09 13:56:57;;;;;;;23.55;18.15;;;;;;;;;;5052614;28;20114;-65
2023/04/09 13:59:23;;;;;;;23.83;18.65;;;;;;;;;;5051193;28;20044;-65
2023/04/09 14:01:49;;;;;;;23.42;18.35;;;;;;;;;;5058665;28;20045;-65
2023/04/09 14:04:16;;;;;;;23.27;18.00;;;;;;;;;;5061133;28;20059;-65
2023/04/09 14:06:42;;;;;;;26.38;19.63;;;;;;;;;;5059904;28;20503;-64
2023/04/09 14:09:09;;;;;;;24.85;18.52;;;;;;;;;;5057991;28;20439;-65
2023/04/09 14:11:35;;;;;;;26.20;18.88;;;;;;;;;;5058819;28;20044;-64
2023/04/09 14:14:01;;;;;;;24.40;18.65;;;;;;;;;;5059176;28;20451;-64
2023/04/09 14:16:29;;;;;;;24.88;19.05;;;;;;;;;;5054628;28;20091;-64